Time;durP1;ratioP1;P1;durP2;ratioP2;P2;SDS_P1;SDS_P2;PMS_P1;PMS_P2;Temp;Humidity;BMP_temperature;BMP_pressure;BME280_temperature;BME280_humidity;BME280_pressure;Samples;Min_cycle;Max_cycle;Signal;HPM_P1;HPM_P2
2020/12/08 00:00:26;;;;;;;14.10;11.23;;;3.80;99.90;;;;;;5034779;28;20022;-72
2020/12/08 00:02:52;;;;;;;14.27;10.73;;;3.90;99.90;;;;;;5021534;28;20114;-77
2020/12/08 00:05:19;;;;;;;15.95;11.02;;;3.80;99.90;;;;;;5025894;28;20033;-72
2020/12/08 00:07:45;;;;;;;14.18;10.63;;;3.90;99.90;;;;;;5044739;28;20021;-72
2020/12/08 00:10:11;;;;;;;12.90;11.20;;;3.90;99.90;;;;;;5036467;28;20390;-72
2020/12/08 00:12:36;;;;;;;14.77;11.63;;;3.90;99.90;;;;;;5029921;28;20032;-72
2020/12/08 00:15:03;;;;;;;13.75;11.50;;;3.90;99.90;;;;;;5027662;28;20247;-71
2020/12/08 00:17:30;;;;;;;14.07;11.57;;;3.80;99.90;;;;;;5032114;28;20403;-73
2020/12/08 00:19:55;;;;;;;15.38;11.48;;;3.70;99.90;;;;;;5016525;28;20426;-74
2020/12/08 00:22:21;;;;;;;12.68;10.27;;;3.80;99.90;;;;;;5029750;28;20041;-72
2020/12/08 00:24:46;;;;;;;12.52;10.75;;;3.70;99.90;;;;;;5032143;28;20286;-72
2020/12/08 00:27:12;;;;;;;16.00;12.70;;;3.70;99.90;;;;;;5016811;28;20135;-73
2020/12/08 00:29:39;;;;;;;12.82;11.02;;;3.60;99.90;;;;;;5025816;28;20030;-73
2020/12/08 00:32:09;;;;;;;17.27;11.65;;;3.70;99.90;;;;;;5037271;28;20025;-72
2020/12/08 00:34:37;;;;;;;13.43;10.93;;;3.90;99.90;;;;;;5042372;28;20021;-72
2020/12/08 00:37:06;;;;;;;14.32;12.23;;;4.10;99.90;;;;;;5045073;28;20038;-73
2020/12/08 00:39:32;;;;;;;15.13;11.50;;;4.10;99.90;;;;;;5032271;28;20048;-73
2020/12/08 00:41:58;;;;;;;14.80;11.80;;;3.90;99.90;;;;;;5025890;28;20036;-73
2020/12/08 00:44:24;;;;;;;14.80;12.48;;;3.80;99.90;;;;;;5017188;28;20488;-73
2020/12/08 00:46:50;;;;;;;14.90;11.65;;;3.80;99.90;;;;;;5031671;28;20028;-73
2020/12/08 00:49:17;;;;;;;13.13;11.30;;;3.80;99.90;;;;;;5031123;28;20480;-73
2020/12/08 00:51:43;;;;;;;14.07;11.82;;;3.90;99.90;;;;;;5013763;28;20444;-74
2020/12/08 00:54:09;;;;;;;14.27;11.73;;;3.70;99.90;;;;;;5017390;28;20108;-74
2020/12/08 00:56:34;;;;;;;15.38;12.68;;;3.60;99.90;;;;;;5011387;28;20049;-73
2020/12/08 00:59:01;;;;;;;14.30;11.82;;;3.70;99.90;;;;;;5011693;28;20065;-73
2020/12/08 01:01:27;;;;;;;15.10;11.75;;;3.60;99.90;;;;;;5012673;28;20028;-73
2020/12/08 01:03:52;;;;;;;13.63;11.35;;;3.50;99.90;;;;;;5026723;28;20112;-74
2020/12/08 01:06:18;;;;;;;13.73;12.15;;;3.50;99.90;;;;;;5025286;28;20033;-72
2020/12/08 01:08:44;;;;;;;15.18;12.65;;;3.50;99.90;;;;;;5040333;28;20369;-73
2020/12/08 01:11:10;;;;;;;15.32;12.23;;;3.50;99.90;;;;;;5011606;28;20493;-72
2020/12/08 01:13:35;;;;;;;16.02;12.32;;;3.50;99.90;;;;;;5017618;28;20117;-72
2020/12/08 01:16:02;;;;;;;15.20;12.43;;;3.60;99.90;;;;;;5019669;28;20052;-72
2020/12/08 01:18:28;;;;;;;14.73;12.20;;;3.60;99.90;;;;;;5015710;28;20034;-73
2020/12/08 01:20:55;;;;;;;16.38;13.05;;;3.60;99.90;;;;;;5026016;28;20025;-72
2020/12/08 01:23:22;;;;;;;18.73;13.95;;;3.70;99.90;;;;;;5035235;28;20033;-73
2020/12/08 01:25:48;;;;;;;16.30;12.80;;;3.70;99.90;;;;;;5025977;28;20448;-72
2020/12/08 01:28:14;;;;;;;16.88;13.32;;;3.70;99.90;;;;;;5013991;28;20040;-72
2020/12/08 01:30:39;;;;;;;20.83;14.77;;;3.70;99.90;;;;;;5023817;28;20064;-73
2020/12/08 01:33:05;;;;;;;19.75;13.93;;;3.70;99.90;;;;;;5028113;28;20041;-73
2020/12/08 01:35:30;;;;;;;18.95;15.23;;;3.70;99.90;;;;;;5029473;28;20025;-73
2020/12/08 01:37:56;;;;;;;20.95;16.10;;;3.80;99.90;;;;;;5051618;28;20026;-73
2020/12/08 01:40:21;;;;;;;19.90;15.20;;;3.80;99.90;;;;;;5041371;28;20045;-72
2020/12/08 01:42:47;;;;;;;18.00;14.05;;;3.80;99.90;;;;;;5031146;28;20076;-72
2020/12/08 01:45:12;;;;;;;19.65;14.75;;;3.80;99.90;;;;;;5028711;28;20058;-73
2020/12/08 01:47:38;;;;;;;20.88;14.95;;;4.10;99.90;;;;;;5036741;28;20068;-72
2020/12/08 01:50:04;;;;;;;21.63;16.60;;;4.00;99.90;;;;;;5033869;28;20036;-73
2020/12/08 01:52:32;;;;;;;24.10;15.70;;;4.00;99.90;;;;;;5015348;28;20030;-74
2020/12/08 01:55:02;;;;;;;23.58;15.52;;;3.90;99.90;;;;;;5015808;28;20076;-73
2020/12/08 01:57:31;;;;;;;26.80;17.73;;;3.70;99.90;;;;;;5042701;28;20028;-73
2020/12/08 01:59:56;;;;;;;20.77;15.55;;;3.70;99.90;;;;;;5027325;28;20026;-74
2020/12/08 02:02:24;;;;;;;24.55;17.27;;;3.70;99.90;;;;;;5019793;28;20033;-73
2020/12/08 02:04:50;;;;;;;20.00;15.85;;;3.60;99.90;;;;;;5034741;28;20083;-73
2020/12/08 02:07:15;;;;;;;21.65;15.82;;;3.70;99.90;;;;;;5028594;28;20056;-74
2020/12/08 02:09:41;;;;;;;20.85;15.93;;;3.70;99.90;;;;;;5042043;28;20080;-73
2020/12/08 02:12:06;;;;;;;21.50;15.55;;;3.70;99.90;;;;;;5029861;28;20037;-72
2020/12/08 02:14:32;;;;;;;25.58;17.00;;;3.70;99.90;;;;;;5014009;28;20037;-72
2020/12/08 02:16:58;;;;;;;25.80;17.80;;;3.70;99.90;;;;;;5025872;28;20030;-73
2020/12/08 02:19:23;;;;;;;22.48;16.10;;;3.60;99.90;;;;;;5023263;28;20030;-73
2020/12/08 02:21:49;;;;;;;22.85;16.85;;;3.60;99.90;;;;;;5046521;28;20108;-73
2020/12/08 02:24:17;;;;;;;25.92;18.58;;;3.70;99.90;;;;;;5030853;28;20511;-73
2020/12/08 02:26:43;;;;;;;23.38;17.23;;;3.90;99.90;;;;;;5013601;28;20559;-73
2020/12/08 02:29:10;;;;;;;25.77;17.70;;;3.90;99.90;;;;;;5014893;28;20393;-73
2020/12/08 02:31:35;;;;;;;23.80;16.80;;;3.90;99.90;;;;;;5016028;28;20485;-72
2020/12/08 02:34:01;;;;;;;23.00;17.30;;;3.90;99.90;;;;;;5017223;28;20112;-73
2020/12/08 02:36:26;;;;;;;24.23;17.23;;;3.80;99.90;;;;;;5014074;28;20026;-73
2020/12/08 02:38:52;;;;;;;26.42;18.85;;;3.70;99.90;;;;;;5028725;28;20144;-73
2020/12/08 02:41:17;;;;;;;23.98;17.60;;;3.60;99.90;;;;;;5042719;28;20029;-72
2020/12/08 02:43:43;;;;;;;28.33;19.70;;;3.60;99.90;;;;;;5046739;28;20104;-73
2020/12/08 02:46:11;;;;;;;27.30;19.73;;;3.50;99.90;;;;;;5019765;28;20029;-73
2020/12/08 02:48:36;;;;;;;27.25;19.63;;;3.60;99.90;;;;;;5015553;28;20075;-72
2020/12/08 02:51:02;;;;;;;30.27;19.83;;;3.60;99.90;;;;;;5012973;28;20022;-72
2020/12/08 02:53:28;;;;;;;27.73;20.15;;;3.50;99.90;;;;;;5013955;28;20029;-74
2020/12/08 02:55:53;;;;;;;27.55;19.40;;;3.60;99.90;;;;;;5013887;28;20045;-73
2020/12/08 02:58:19;;;;;;;28.92;20.38;;;3.60;99.90;;;;;;5020829;28;20108;-73
2020/12/08 03:00:44;;;;;;;27.25;18.92;;;3.60;99.90;;;;;;5012560;28;20025;-73
2020/12/08 03:03:10;;;;;;;28.83;19.95;;;3.50;99.90;;;;;;5025562;28;20464;-73
2020/12/08 03:05:36;;;;;;;28.15;19.05;;;3.50;99.90;;;;;;5025143;28;20029;-72
2020/12/08 03:08:01;;;;;;;25.42;18.67;;;3.50;99.90;;;;;;5039485;28;20025;-74
2020/12/08 03:10:27;;;;;;;32.67;20.27;;;3.50;99.90;;;;;;5025861;28;20034;-73
2020/12/08 03:12:52;;;;;;;26.95;18.58;;;3.50;99.90;;;;;;5013090;28;20022;-73
2020/12/08 03:15:18;;;;;;;27.65;18.63;;;3.40;99.90;;;;;;5014134;28;20112;-72
2020/12/08 03:17:44;;;;;;;28.52;19.20;;;3.40;99.90;;;;;;5013445;28;20099;-72
2020/12/08 03:20:09;;;;;;;27.27;20.00;;;3.30;99.90;;;;;;5012951;28;20055;-73
2020/12/08 03:22:35;;;;;;;29.88;20.10;;;3.30;99.90;;;;;;5030848;28;20464;-73
2020/12/08 03:25:02;;;;;;;28.88;19.98;;;3.30;99.90;;;;;;5024057;28;20025;-73
2020/12/08 03:27:28;;;;;;;26.95;18.58;;;3.30;99.90;;;;;;5011897;28;20095;-73
2020/12/08 03:29:53;;;;;;;29.80;19.95;;;3.20;99.90;;;;;;5012958;28;20481;-73
2020/12/08 03:32:19;;;;;;;27.67;19.40;;;3.30;99.90;;;;;;5013099;28;20124;-73
2020/12/08 03:34:44;;;;;;;26.92;18.58;;;3.30;99.90;;;;;;5022543;28;20044;-73
2020/12/08 03:37:10;;;;;;;30.08;20.05;;;3.20;99.90;;;;;;5011734;28;20026;-73
2020/12/08 03:39:35;;;;;;;28.98;20.20;;;3.20;99.90;;;;;;5012995;28;20030;-73
2020/12/08 03:42:04;;;;;;;32.92;20.80;;;3.20;99.90;;;;;;5014777;28;20037;-73
2020/12/08 03:44:31;;;;;;;28.58;19.92;;;3.10;99.90;;;;;;5035305;28;20133;-73
2020/12/08 03:46:58;;;;;;;31.35;21.55;;;3.00;99.90;;;;;;5032891;28;20062;-73
2020/12/08 03:49:26;;;;;;;31.10;21.10;;;3.00;99.90;;;;;;5029211;28;20083;-72
2020/12/08 03:51:55;;;;;;;30.83;21.05;;;2.90;99.90;;;;;;5033845;28;20040;-73
2020/12/08 03:54:21;;;;;;;30.27;20.75;;;2.90;99.90;;;;;;5029086;28;20208;-73
2020/12/08 03:56:47;;;;;;;29.10;19.45;;;2.90;99.90;;;;;;5024067;28;20485;-73
2020/12/08 03:59:17;;;;;;;28.98;19.80;;;2.90;99.90;;;;;;5024430;28;20396;-73
2020/12/08 04:01:44;;;;;;;29.73;21.10;;;3.00;99.90;;;;;;5027790;28;20057;-72
2020/12/08 04:04:09;;;;;;;31.05;20.13;;;3.00;99.90;;;;;;5040220;28;20033;-73
2020/12/08 04:06:35;;;;;;;29.40;19.70;;;3.00;99.90;;;;;;5041107;28;20035;-73
2020/12/08 04:09:00;;;;;;;23.52;17.48;;;3.10;99.90;;;;;;5059729;28;20101;-72
2020/12/08 04:11:26;;;;;;;28.65;18.20;;;3.20;99.90;;;;;;5073121;28;20014;-72
2020/12/08 04:13:51;;;;;;;27.65;19.42;;;3.00;99.90;;;;;;5050002;28;20021;-72
2020/12/08 04:16:17;;;;;;;27.23;19.80;;;2.90;99.90;;;;;;5046556;28;20033;-73
2020/12/08 04:18:43;;;;;;;31.92;21.65;;;2.90;99.90;;;;;;5035521;28;20045;-72
2020/12/08 04:21:08;;;;;;;29.70;19.42;;;2.80;99.90;;;;;;5037211;28;20045;-73
2020/12/08 04:23:34;;;;;;;28.83;19.80;;;2.70;99.90;;;;;;5035219;28;20575;-72
2020/12/08 04:26:00;;;;;;;27.48;18.67;;;2.70;99.90;;;;;;5035902;28;20072;-72
2020/12/08 04:28:26;;;;;;;30.70;20.63;;;2.70;99.90;;;;;;5042027;28;20014;-73
2020/12/08 04:30:51;;;;;;;33.88;20.20;;;2.70;99.90;;;;;;5032892;28;20047;-73
2020/12/08 04:33:17;;;;;;;28.60;19.60;;;2.70;99.90;;;;;;5019433;28;20034;-74
2020/12/08 04:35:43;;;;;;;27.42;19.38;;;2.60;99.90;;;;;;5031895;28;20030;-73
2020/12/08 04:38:09;;;;;;;28.58;19.13;;;2.50;99.90;;;;;;5016545;28;20021;-73
2020/12/08 04:40:36;;;;;;;28.38;20.13;;;2.50;99.90;;;;;;5018741;28;20045;-73
2020/12/08 04:43:05;;;;;;;29.75;20.50;;;2.50;99.90;;;;;;5039184;28;20039;-72
2020/12/08 04:45:31;;;;;;;30.05;20.58;;;2.50;99.90;;;;;;5042524;28;20400;-74
2020/12/08 04:48:05;;;;;;;27.33;18.25;;;2.50;99.90;;;;;;5051451;28;20094;-73
2020/12/08 04:50:32;;;;;;;27.67;18.25;;;2.50;99.90;;;;;;5027636;28;20041;-73
2020/12/08 04:52:58;;;;;;;26.10;18.23;;;2.70;99.90;;;;;;5028297;28;20040;-72
2020/12/08 04:55:24;;;;;;;25.77;18.08;;;2.90;99.90;;;;;;5016778;28;20038;-74
2020/12/08 04:57:52;;;;;;;25.95;18.70;;;3.00;99.90;;;;;;5029814;28;20118;-73
2020/12/08 05:00:17;;;;;;;25.95;17.92;;;3.00;99.90;;;;;;5031743;28;20022;-73
2020/12/08 05:02:50;;;;;;;25.27;18.13;;;3.00;99.90;;;;;;5021849;28;20212;-73
2020/12/08 05:05:19;;;;;;;23.13;17.55;;;2.90;99.90;;;;;;5018315;28;20099;-72
2020/12/08 05:07:46;;;;;;;29.98;18.77;;;2.90;99.90;;;;;;5025711;28;20041;-72
2020/12/08 05:10:13;;;;;;;32.90;20.30;;;2.80;99.90;;;;;;5030441;28;20022;-73
2020/12/08 05:12:38;;;;;;;25.52;18.55;;;2.70;99.90;;;;;;5034160;28;20115;-73
2020/12/08 05:15:09;;;;;;;26.90;19.33;;;2.70;99.90;;;;;;5015477;28;20057;-73
2020/12/08 05:17:35;;;;;;;29.08;19.30;;;2.60;99.90;;;;;;5021107;28;20554;-73
2020/12/08 05:20:07;;;;;;;28.83;19.08;;;2.50;99.90;;;;;;5017723;28;20058;-73
2020/12/08 05:22:33;;;;;;;27.80;19.10;;;2.60;99.90;;;;;;5031963;28;20026;-73
2020/12/08 05:25:08;;;;;;;30.38;17.88;;;2.80;99.90;;;;;;5034781;28;20032;-74
2020/12/08 05:27:35;;;;;;;26.65;18.17;;;2.90;99.90;;;;;;5018441;28;20127;-73
2020/12/08 05:30:08;;;;;;;27.63;19.05;;;2.90;99.90;;;;;;5015999;28;20111;-73
2020/12/08 05:32:41;;;;;;;27.80;19.15;;;2.90;99.90;;;;;;5015490;28;20491;-73
2020/12/08 05:35:12;;;;;;;32.17;20.67;;;2.70;99.90;;;;;;5016022;28;20079;-73
2020/12/08 05:37:43;;;;;;;26.77;18.90;;;2.60;99.90;;;;;;5015054;28;20030;-73
2020/12/08 05:40:14;;;;;;;27.30;19.30;;;2.50;99.90;;;;;;5015677;28;20500;-73
2020/12/08 05:42:42;;;;;;;29.38;20.00;;;2.50;99.90;;;;;;5038127;28;20033;-73
2020/12/08 05:45:19;;;;;;;31.10;20.77;;;2.80;99.90;;;;;;5055250;28;20030;-73
2020/12/08 05:47:52;;;;;;;28.27;19.00;;;2.90;99.90;;;;;;5028453;28;20030;-74
2020/12/08 05:50:20;;;;;;;27.70;18.45;;;2.80;99.90;;;;;;5031045;28;20385;-72
2020/12/08 05:52:53;;;;;;;27.55;19.95;;;2.90;99.90;;;;;;5013673;28;20034;-72
2020/12/08 05:55:25;;;;;;;25.90;18.50;;;2.90;99.90;;;;;;5016272;28;20025;-73
2020/12/08 05:57:51;;;;;;;28.83;19.38;;;2.70;99.90;;;;;;5019164;28;20037;-73
2020/12/08 06:00:28;;;;;;;28.20;19.75;;;2.70;99.90;;;;;;5016912;28;20030;-74
2020/12/08 06:03:06;;;;;;;29.38;20.88;;;2.60;99.90;;;;;;5018680;28;20567;-72
2020/12/08 06:05:32;;;;;;;31.00;20.75;;;2.70;99.90;;;;;;5026237;28;20044;-72
2020/12/08 06:07:59;;;;;;;32.67;19.48;;;2.80;99.90;;;;;;5041235;28;20037;-72
2020/12/08 06:10:26;;;;;;;30.88;19.88;;;2.70;99.90;;;;;;5047162;28;20040;-71
2020/12/08 06:13:01;;;;;;;30.58;21.05;;;2.70;99.90;;;;;;5035606;28;20412;-74
2020/12/08 06:15:38;;;;;;;32.83;19.50;;;2.60;99.90;;;;;;5034786;28;20053;-73
2020/12/08 06:18:04;;;;;;;30.25;20.42;;;2.70;99.90;;;;;;5016674;28;20033;-74
2020/12/08 06:20:29;;;;;;;28.98;19.08;;;2.90;99.90;;;;;;5021029;28;20026;-73
2020/12/08 06:22:56;;;;;;;25.92;17.20;;;2.90;99.90;;;;;;5035144;28;20033;-73
2020/12/08 06:25:22;;;;;;;27.90;19.50;;;3.10;99.90;;;;;;5041925;28;20493;-73
2020/12/08 06:27:48;;;;;;;30.58;18.92;;;3.20;99.90;;;;;;5035489;28;20034;-73
2020/12/08 06:30:22;;;;;;;27.20;19.13;;;3.20;99.90;;;;;;5027051;28;20582;-74
2020/12/08 06:32:48;;;;;;;29.13;18.92;;;3.10;99.90;;;;;;5022893;28;20022;-73
2020/12/08 06:35:15;;;;;;;30.48;20.33;;;3.10;99.90;;;;;;5031628;28;20029;-73
2020/12/08 06:37:53;;;;;;;26.40;18.75;;;2.90;99.90;;;;;;5024839;28;20118;-73
2020/12/08 06:40:23;;;;;;;27.48;19.40;;;2.90;99.90;;;;;;5012797;28;20022;-73
2020/12/08 06:42:51;;;;;;;26.93;19.93;;;3.00;99.90;;;;;;5028091;28;20033;-73
2020/12/08 06:45:22;;;;;;;29.55;19.58;;;3.00;99.90;;;;;;5038761;28;20673;-72
2020/12/08 06:47:48;;;;;;;29.15;20.13;;;2.80;99.90;;;;;;5019478;28;20041;-73
2020/12/08 06:50:22;;;;;;;32.22;19.55;;;2.70;99.90;;;;;;5017058;28;20108;-73
2020/12/08 06:52:55;;;;;;;34.97;19.83;;;2.70;99.90;;;;;;5033641;28;20029;-73
2020/12/08 06:55:21;;;;;;;30.90;19.90;;;2.80;99.90;;;;;;5020281;28;20030;-73
2020/12/08 06:57:47;;;;;;;30.77;19.58;;;2.60;99.90;;;;;;5012803;28;20112;-73
2020/12/08 07:00:13;;;;;;;29.20;19.70;;;2.50;99.90;;;;;;5013559;28;20460;-72
2020/12/08 07:02:50;;;;;;;34.63;20.65;;;2.40;99.90;;;;;;5021693;28;20176;-73
2020/12/08 07:05:20;;;;;;;29.38;19.40;;;2.40;99.90;;;;;;5018823;28;20029;-73
2020/12/08 07:07:47;;;;;;;34.35;19.90;;;2.40;99.90;;;;;;5013120;28;20068;-73
2020/12/08 07:10:13;;;;;;;31.55;19.13;;;2.60;99.90;;;;;;5013349;28;20026;-72
2020/12/08 07:12:43;;;;;;;35.58;21.83;;;2.50;99.90;;;;;;5019446;28;20072;-74
2020/12/08 07:15:13;;;;;;;34.97;19.97;;;2.30;99.90;;;;;;5030030;28;20038;-73
2020/12/08 07:17:39;;;;;;;31.67;19.63;;;2.30;99.90;;;;;;5018373;28;20329;-72
2020/12/08 07:20:05;;;;;;;33.08;19.92;;;2.20;99.90;;;;;;5014035;28;20050;-73
2020/12/08 07:22:44;;;;;;;31.63;21.02;;;2.30;99.90;;;;;;5029838;28;20029;-74
2020/12/08 07:25:14;;;;;;;28.77;20.27;;;2.40;99.90;;;;;;5021378;28;20058;-72
2020/12/08 07:27:51;;;;;;;37.73;22.23;;;2.40;99.90;;;;;;5012620;28;20730;-73
2020/12/08 07:30:18;;;;;;;36.90;22.20;;;2.50;99.90;;;;;;5031137;28;20087;-73
2020/12/08 07:32:44;;;;;;;34.45;22.45;;;2.50;99.90;;;;;;5032367;28;20116;-73
2020/12/08 07:35:27;;;;;;;35.30;21.55;;;2.50;99.90;;;;;;5027243;28;20388;-73
2020/12/08 07:37:56;;;;;;;31.10;20.83;;;2.60;99.90;;;;;;5028489;28;20131;-73
2020/12/08 07:40:22;;;;;;;33.72;21.98;;;2.50;99.90;;;;;;5012676;28;20026;-73
2020/12/08 07:42:52;;;;;;;37.45;23.08;;;2.60;99.90;;;;;;5020840;28;20051;-72
2020/12/08 07:45:19;;;;;;;33.80;22.57;;;2.70;99.90;;;;;;5037280;28;20025;-73
2020/12/08 07:47:56;;;;;;;30.83;20.67;;;2.70;99.90;;;;;;5032986;28;20079;-72
2020/12/08 07:50:26;;;;;;;30.17;20.92;;;2.70;99.90;;;;;;5032266;28;20033;-73
2020/12/08 07:52:59;;;;;;;31.75;21.17;;;2.70;99.90;;;;;;5012678;28;20033;-73
2020/12/08 07:55:27;;;;;;;32.22;20.73;;;2.70;99.90;;;;;;5013337;28;20029;-73
2020/12/08 07:57:53;;;;;;;30.65;21.20;;;2.80;99.90;;;;;;5013983;28;20092;-73
2020/12/08 08:00:19;;;;;;;35.85;22.65;;;2.80;99.90;;;;;;5015275;28;20113;-73
2020/12/08 08:02:44;;;;;;;28.27;19.70;;;2.70;99.90;;;;;;5021352;28;20523;-73
2020/12/08 08:05:10;;;;;;;34.05;23.10;;;2.70;99.90;;;;;;5013072;28;20026;-73
2020/12/08 08:07:36;;;;;;;32.25;21.67;;;2.70;99.90;;;;;;5014544;28;20033;-73
2020/12/08 08:10:02;;;;;;;35.80;22.70;;;2.70;99.90;;;;;;5039082;28;20045;-72
2020/12/08 08:12:27;;;;;;;31.55;21.08;;;2.70;99.90;;;;;;5041654;28;20029;-72
2020/12/08 08:14:53;;;;;;;27.77;19.90;;;2.70;99.90;;;;;;5046741;28;20028;-73
2020/12/08 08:17:18;;;;;;;33.58;22.90;;;2.70;99.90;;;;;;5049946;28;20040;-73
2020/12/08 08:19:44;;;;;;;37.00;21.75;;;2.70;99.90;;;;;;5049750;28;20033;-73
2020/12/08 08:22:09;;;;;;;29.58;19.95;;;2.70;99.90;;;;;;5032698;28;20026;-72
2020/12/08 08:24:35;;;;;;;30.25;21.17;;;2.70;99.90;;;;;;5032840;28;20025;-73
2020/12/08 08:27:01;;;;;;;35.53;20.17;;;3.00;99.90;;;;;;5027442;28;20044;-72
2020/12/08 08:29:26;;;;;;;29.77;20.33;;;3.20;99.90;;;;;;5024268;28;20032;-73
2020/12/08 08:31:52;;;;;;;33.85;21.00;;;3.10;99.90;;;;;;5023469;28;20041;-72
2020/12/08 08:34:17;;;;;;;36.83;22.52;;;3.10;99.90;;;;;;5020636;28;20030;-73
2020/12/08 08:36:54;;;;;;;33.17;21.58;;;3.20;99.90;;;;;;5017155;28;20077;-73
2020/12/08 08:39:19;;;;;;;35.60;21.67;;;3.20;99.90;;;;;;5017365;28;20041;-73
2020/12/08 08:41:45;;;;;;;34.88;21.40;;;3.10;99.90;;;;;;5017745;28;20026;-73
2020/12/08 08:44:11;;;;;;;34.72;21.67;;;3.20;99.90;;;;;;5047206;28;20059;-72
2020/12/08 08:46:41;;;;;;;33.33;21.83;;;3.20;99.90;;;;;;5036118;28;20026;-73
2020/12/08 08:49:16;;;;;;;28.60;20.05;;;3.20;99.90;;;;;;5035594;28;20033;-73
2020/12/08 08:51:45;;;;;;;31.08;21.60;;;3.20;99.90;;;;;;5035466;28;20029;-72
2020/12/08 08:54:12;;;;;;;32.78;21.45;;;3.00;99.90;;;;;;5028572;28;20045;-73
2020/12/08 08:56:38;;;;;;;35.75;23.27;;;2.90;99.90;;;;;;5015926;28;20029;-73
2020/12/08 08:59:04;;;;;;;32.80;21.60;;;3.00;99.90;;;;;;5016981;28;20030;-73
2020/12/08 09:01:30;;;;;;;30.35;20.25;;;3.10;99.90;;;;;;5016715;28;20029;-73
2020/12/08 09:03:55;;;;;;;31.38;21.85;;;3.20;99.90;;;;;;5018102;28;20088;-73
2020/12/08 09:06:21;;;;;;;31.80;22.55;;;3.20;99.90;;;;;;5017860;28;20037;-73
2020/12/08 09:08:47;;;;;;;29.85;20.25;;;3.10;99.90;;;;;;5017022;28;20021;-73
2020/12/08 09:11:12;;;;;;;32.95;21.20;;;3.20;99.90;;;;;;5016426;28;20037;-74
2020/12/08 09:13:38;;;;;;;35.92;20.15;;;3.50;99.90;;;;;;5017058;28;20394;-74
2020/12/08 09:16:05;;;;;;;30.33;20.38;;;3.60;99.90;;;;;;5032789;28;20484;-74
2020/12/08 09:18:30;;;;;;;33.83;22.40;;;3.60;99.90;;;;;;5032467;28;20380;-73
2020/12/08 09:20:56;;;;;;;30.00;20.52;;;3.40;99.90;;;;;;5018412;28;20109;-73
2020/12/08 09:23:22;;;;;;;29.23;20.20;;;3.40;99.90;;;;;;5017145;28;20079;-73
2020/12/08 09:25:53;;;;;;;32.78;21.60;;;3.50;99.90;;;;;;5016916;28;20053;-72
2020/12/08 09:28:19;;;;;;;31.35;20.52;;;3.60;99.90;;;;;;5031282;28;20030;-72
2020/12/08 09:30:45;;;;;;;35.67;20.95;;;3.70;99.90;;;;;;5028884;28;20649;-72
2020/12/08 09:33:10;;;;;;;30.60;20.80;;;3.70;99.90;;;;;;5017194;28;20029;-73
2020/12/08 09:35:36;;;;;;;29.40;19.50;;;3.80;99.90;;;;;;5020306;28;20018;-72
2020/12/08 09:38:02;;;;;;;30.17;19.20;;;3.90;99.90;;;;;;5036364;28;20057;-72
2020/12/08 09:40:27;;;;;;;36.95;21.50;;;3.70;99.90;;;;;;5035302;28;20100;-74
2020/12/08 09:42:53;;;;;;;28.20;19.30;;;3.60;99.90;;;;;;5050645;28;20404;-72
2020/12/08 09:45:19;;;;;;;32.33;21.02;;;3.60;99.90;;;;;;5046240;28;20395;-72
2020/12/08 09:47:44;;;;;;;32.05;21.77;;;3.90;99.90;;;;;;5019316;28;20393;-72
2020/12/08 09:50:10;;;;;;;28.55;20.52;;;3.90;99.90;;;;;;5025419;28;20036;-73
2020/12/08 09:52:37;;;;;;;31.52;21.27;;;4.10;99.90;;;;;;5015177;28;20485;-73
2020/12/08 09:55:04;;;;;;;35.15;21.92;;;4.10;99.90;;;;;;5013738;28;20045;-74
2020/12/08 09:57:30;;;;;;;35.47;20.10;;;3.90;99.90;;;;;;5014760;28;20068;-73
2020/12/08 09:59:55;;;;;;;33.85;21.55;;;3.90;99.90;;;;;;5029529;28;20427;-73
2020/12/08 10:02:23;;;;;;;29.85;20.55;;;4.20;99.90;;;;;;5015467;28;20038;-73
2020/12/08 10:04:52;;;;;;;32.53;21.15;;;4.30;99.90;;;;;;5018694;28;20380;-73
2020/12/08 10:07:19;;;;;;;32.95;21.45;;;4.40;99.90;;;;;;5025490;28;20088;-72
2020/12/08 10:09:45;;;;;;;34.92;21.25;;;4.30;99.90;;;;;;5026296;28;20025;-73
2020/12/08 10:12:11;;;;;;;33.05;22.10;;;4.50;99.90;;;;;;5037723;28;20040;-72
2020/12/08 10:14:36;;;;;;;36.22;21.65;;;4.40;99.90;;;;;;5018094;28;20026;-73
2020/12/08 10:17:03;;;;;;;33.08;21.92;;;4.30;99.90;;;;;;5018752;28;20024;-73
2020/12/08 10:19:28;;;;;;;32.08;20.88;;;4.50;99.90;;;;;;5019344;28;20064;-74
2020/12/08 10:21:55;;;;;;;31.83;20.67;;;4.70;99.90;;;;;;5014657;28;20026;-72
2020/12/08 10:24:21;;;;;;;30.33;20.77;;;4.60;99.90;;;;;;5030593;28;20091;-74
2020/12/08 10:26:47;;;;;;;34.97;22.52;;;4.40;99.90;;;;;;5032140;28;20408;-73
2020/12/08 10:29:12;;;;;;;31.60;21.60;;;4.30;99.90;;;;;;5032457;28;20480;-73
2020/12/08 10:31:38;;;;;;;31.05;19.23;;;4.40;99.90;;;;;;5033213;28;20575;-74
2020/12/08 10:34:03;;;;;;;32.03;20.05;;;4.80;99.90;;;;;;5028214;28;20080;-74
2020/12/08 10:36:29;;;;;;;27.40;18.67;;;4.90;99.90;;;;;;5016061;28;20137;-73
2020/12/08 10:38:55;;;;;;;34.17;20.83;;;5.00;99.90;;;;;;5020061;28;20033;-73
2020/12/08 10:41:21;;;;;;;26.02;19.10;;;5.00;99.90;;;;;;5033685;28;20104;-74
2020/12/08 10:43:48;;;;;;;28.88;19.55;;;4.90;99.90;;;;;;5042238;28;20033;-73
2020/12/08 10:46:14;;;;;;;28.83;19.00;;;5.00;99.90;;;;;;5033641;28;20555;-73
2020/12/08 10:48:39;;;;;;;28.02;19.00;;;5.10;99.90;;;;;;5025639;28;20528;-74
2020/12/08 10:51:05;;;;;;;28.98;18.65;;;5.20;99.90;;;;;;5033192;28;20026;-73
2020/12/08 10:53:30;;;;;;;26.25;17.67;;;5.30;99.90;;;;;;5033352;28;20551;-74
2020/12/08 10:55:56;;;;;;;29.45;19.35;;;5.20;99.90;;;;;;5026182;28;20025;-72
2020/12/08 10:58:22;;;;;;;24.08;17.48;;;5.40;99.90;;;;;;5018156;28;20054;-73
2020/12/08 11:00:47;;;;;;;29.25;19.77;;;5.40;99.90;;;;;;5031376;28;20022;-73
2020/12/08 11:03:13;;;;;;;25.48;18.98;;;5.10;99.90;;;;;;5022148;28;20026;-73
2020/12/08 11:05:39;;;;;;;29.08;19.90;;;4.90;99.90;;;;;;5025838;28;20036;-73
2020/12/08 11:08:05;;;;;;;27.27;20.08;;;4.70;99.90;;;;;;5040632;28;20033;-75
2020/12/08 11:10:30;;;;;;;27.85;19.60;;;4.70;99.90;;;;;;5025450;28;20041;-74
2020/12/08 11:12:56;;;;;;;28.88;19.95;;;4.90;99.90;;;;;;5024405;28;20030;-73
2020/12/08 11:15:21;;;;;;;28.83;19.98;;;5.30;99.90;;;;;;5026180;28;20069;-73
2020/12/08 11:17:47;;;;;;;25.98;17.95;;;5.20;99.90;;;;;;5031696;28;20100;-74
2020/12/08 11:20:13;;;;;;;26.40;19.60;;;5.00;99.90;;;;;;5026363;28;20500;-73
2020/12/08 11:22:38;;;;;;;25.08;18.92;;;5.00;99.90;;;;;;5019891;28;20064;-74
2020/12/08 11:25:06;;;;;;;23.27;18.35;;;5.20;99.90;;;;;;5035309;28;20045;-74
2020/12/08 11:27:32;;;;;;;24.63;16.75;;;5.30;99.90;;;;;;5051199;23;20115;-69
2020/12/08 11:30:00;;;;;;;27.42;18.15;;;5.30;99.90;;;;;;5035301;28;20026;-73
2020/12/08 11:32:26;;;;;;;25.38;17.45;;;5.30;99.90;;;;;;5022893;28;20289;-70
2020/12/08 11:34:52;;;;;;;24.90;17.92;;;5.10;99.90;;;;;;5034368;28;20464;-70
2020/12/08 11:37:17;;;;;;;21.95;16.30;;;5.30;99.90;;;;;;5034277;28;20029;-69
2020/12/08 11:39:43;;;;;;;30.00;17.52;;;5.50;99.90;;;;;;5033518;28;20052;-69
2020/12/08 11:42:12;;;;;;;22.45;16.73;;;5.60;99.90;;;;;;5030124;28;20109;-69
2020/12/08 11:44:38;;;;;;;27.83;18.05;;;5.60;99.90;;;;;;5026075;28;20525;-70
2020/12/08 11:47:03;;;;;;;22.50;16.92;;;5.50;99.90;;;;;;5016504;28;20035;-69
2020/12/08 11:49:30;;;;;;;23.90;17.15;;;5.70;99.90;;;;;;5028596;28;20552;-70
2020/12/08 11:51:56;;;;;;;24.13;15.75;;;5.70;99.90;;;;;;5022566;28;20075;-70
2020/12/08 11:54:22;;;;;;;21.27;16.08;;;5.60;99.90;;;;;;5028437;28;20022;-69
2020/12/08 11:56:48;;;;;;;21.98;16.42;;;5.80;99.90;;;;;;5019365;28;20516;-70
2020/12/08 11:59:14;;;;;;;21.38;15.65;;;6.00;99.90;;;;;;5021359;28;20049;-70
2020/12/08 12:01:40;;;;;;;21.63;15.27;;;6.10;99.90;;;;;;5030665;28;20482;-70
2020/12/08 12:04:05;;;;;;;18.45;14.73;;;6.30;99.90;;;;;;5011010;28;20041;-70
2020/12/08 12:06:31;;;;;;;19.63;14.82;;;6.30;99.90;;;;;;5016178;28;20030;-70
2020/12/08 12:08:57;;;;;;;16.38;12.63;;;6.20;99.90;;;;;;5031522;28;20373;-70
2020/12/08 12:11:22;;;;;;;17.10;13.27;;;6.30;99.90;;;;;;5027437;28;20041;-69
2020/12/08 12:13:48;;;;;;;19.92;12.40;;;6.40;99.90;;;;;;5033306;28;20036;-70
2020/12/08 12:16:15;;;;;;;16.35;12.80;;;6.50;99.90;;;;;;5016077;28;20036;-70
2020/12/08 12:18:41;;;;;;;17.75;13.35;;;6.50;99.90;;;;;;5017028;28;20489;-69
2020/12/08 12:21:07;;;;;;;18.92;13.63;;;6.50;99.90;;;;;;5017016;28;20087;-70
2020/12/08 12:23:32;;;;;;;22.10;15.30;;;6.50;99.90;;;;;;5023480;28;20476;-70
2020/12/08 12:25:58;;;;;;;20.15;14.07;;;6.50;99.90;;;;;;5016466;28;20030;-70
2020/12/08 12:28:24;;;;;;;15.30;12.20;;;6.30;99.90;;;;;;5012259;28;20065;-71
2020/12/08 12:30:49;;;;;;;18.75;13.82;;;6.20;99.90;;;;;;5015033;28;20057;-69
2020/12/08 12:33:15;;;;;;;17.17;13.85;;;6.20;99.90;;;;;;5014730;28;20084;-71